createdAt,value
2022-11-10T00:00:23.758Z,100523.34
2022-11-10T00:01:55.722Z,100531.91
2022-11-10T00:03:28.665Z,100522.47
2022-11-10T00:05:00.474Z,100520.72
2022-11-10T00:06:32.352Z,100525.88
2022-11-10T00:08:05.276Z,100519.88
2022-11-10T00:09:37.164Z,100519.84
2022-11-10T00:11:09.058Z,100530.97
2022-11-10T00:12:40.932Z,100524.06
2022-11-10T00:14:31.059Z,100528.31
2022-11-10T00:16:22.237Z,100524.00
2022-11-10T00:17:54.040Z,100520.50
2022-11-10T00:19:25.888Z,100520.50
2022-11-10T00:21:02.424Z,100522.22
2022-11-10T00:22:34.611Z,100523.03
2022-11-10T00:25:39.227Z,100512.72
2022-11-10T00:27:11.384Z,100516.22
2022-11-10T00:28:43.702Z,100518.75
2022-11-10T00:30:15.540Z,100517.09
2022-11-10T00:31:47.405Z,100512.78
2022-11-10T00:33:19.665Z,100509.41
2022-11-10T00:34:52.042Z,100513.69
2022-11-10T00:36:24.204Z,100511.13
2022-11-10T00:37:55.988Z,100511.09
2022-11-10T00:39:27.954Z,100509.38
2022-11-10T00:41:00.702Z,100500.75
2022-11-10T00:42:32.646Z,100508.47
2022-11-10T00:44:04.602Z,100502.50
2022-11-10T00:45:36.477Z,100498.25
2022-11-10T00:47:08.261Z,100503.31
2022-11-10T00:48:40.134Z,100499.00
2022-11-10T00:50:11.955Z,100492.09
2022-11-10T00:51:43.775Z,100497.97
2022-11-10T00:53:15.812Z,100497.03
2022-11-10T00:54:47.678Z,100489.25
2022-11-10T00:56:19.713Z,100499.53
2022-11-10T00:57:51.503Z,100492.75
2022-11-10T00:59:23.493Z,100495.34
2022-11-10T01:01:04.787Z,100498.72
2022-11-10T01:02:36.739Z,100496.16
2022-11-10T01:04:08.648Z,100492.72
2022-11-10T01:05:40.504Z,100488.47
2022-11-10T01:07:12.443Z,100487.66
2022-11-10T01:08:44.385Z,100485.94
2022-11-10T01:10:16.520Z,100491.03
2022-11-10T01:11:48.382Z,100490.16
2022-11-10T01:13:20.543Z,100493.53
2022-11-10T01:15:08.271Z,100483.28
2022-11-10T01:16:40.068Z,100493.63
2022-11-10T01:18:11.988Z,100490.22
2022-11-10T01:19:44.064Z,100491.13
2022-11-10T01:21:15.987Z,100489.38
2022-11-10T01:24:21.976Z,100489.34
2022-11-10T01:25:57.243Z,100493.56
2022-11-10T01:27:29.051Z,100493.53
2022-11-10T01:29:00.904Z,100485.81
2022-11-10T01:30:32.734Z,100497.00
2022-11-10T01:32:04.607Z,100495.34
2022-11-10T01:33:36.592Z,100497.94
2022-11-10T01:35:08.652Z,100497.03
2022-11-10T01:36:40.492Z,100494.47
2022-11-10T01:38:12.347Z,100494.44
2022-11-10T01:39:44.251Z,100493.53
2022-11-10T01:41:16.139Z,100502.09
2022-11-10T01:42:55.764Z,100489.22
2022-11-10T01:44:27.634Z,100495.22
2022-11-10T01:46:03.186Z,100493.44
2022-11-10T01:47:34.983Z,100495.97
2022-11-10T01:49:06.817Z,100498.50
2022-11-10T01:50:39.936Z,100499.31
2022-11-10T01:52:12.523Z,100495.84
2022-11-10T01:53:45.030Z,100498.38
2022-11-10T01:55:16.850Z,100498.31
2022-11-10T01:58:25.998Z,100492.25
2022-11-10T01:59:57.777Z,100493.94
2022-11-10T02:01:29.857Z,100496.47
2022-11-10T02:03:02.983Z,100498.97
2022-11-10T02:04:34.889Z,100489.56
2022-11-10T02:06:07.280Z,100502.44
2022-11-10T02:07:39.383Z,100506.75
2022-11-10T02:09:11.364Z,100499.91
2022-11-10T02:10:43.156Z,100495.56
2022-11-10T02:12:15.095Z,100504.06
2022-11-10T02:13:47.077Z,100501.47
2022-11-10T02:15:18.954Z,100501.41
2022-11-10T02:16:50.745Z,100504.75
2022-11-10T02:18:22.560Z,100504.69
2022-11-10T02:19:54.317Z,100501.31
2022-11-10T02:21:26.216Z,100502.13
2022-11-10T02:22:58.011Z,100505.56
2022-11-10T02:24:29.835Z,100505.56
2022-11-10T02:26:02.431Z,100498.72
2022-11-10T02:27:34.426Z,100513.25
2022-11-10T02:29:06.235Z,100498.66
2022-11-10T02:30:38.122Z,100508.94
2022-11-10T02:32:09.916Z,100504.69
2022-11-10T02:33:41.874Z,100500.41
2022-11-10T02:35:13.639Z,100503.78
2022-11-10T02:36:45.448Z,100501.22
2022-11-10T02:38:18.178Z,100506.28
2022-11-10T02:39:50.139Z,100511.41
2022-11-10T02:41:22.227Z,100513.16
2022-11-10T02:42:54.046Z,100517.50
2022-11-10T02:44:26.051Z,100509.81
2022-11-10T02:45:57.912Z,100512.38
2022-11-10T02:47:29.781Z,100518.38
2022-11-10T02:49:01.549Z,100513.97
2022-11-10T02:50:33.394Z,100515.56
2022-11-10T02:52:05.318Z,100516.34
2022-11-10T02:53:37.094Z,100519.81
2022-11-10T02:55:09.142Z,100515.56
2022-11-10T02:58:13.822Z,100517.25
2022-11-10T02:59:45.657Z,100513.72
2022-11-10T03:01:17.435Z,100513.69
2022-11-10T03:02:49.288Z,100511.13
2022-11-10T03:04:21.129Z,100510.22
2022-11-10T03:05:52.984Z,100516.25
2022-11-10T03:07:24.825Z,100523.16
2022-11-10T03:08:56.950Z,100521.50
2022-11-10T03:10:29.219Z,100523.13
2022-11-10T03:12:01.104Z,100517.94
2022-11-10T03:13:51.815Z,100517.03
2022-11-10T03:15:24.926Z,100519.53
2022-11-10T03:16:56.746Z,100520.47
2022-11-10T03:18:28.574Z,100521.38
2022-11-10T03:20:00.345Z,100526.50
2022-11-10T03:21:32.188Z,100527.38
2022-11-10T03:23:04.443Z,100524.84
2022-11-10T03:24:36.234Z,100521.47
2022-11-10T03:27:40.835Z,100527.38
2022-11-10T03:29:12.704Z,100525.63
2022-11-10T03:30:45.547Z,100526.50
2022-11-10T03:32:17.361Z,100524.00
2022-11-10T03:33:49.231Z,100526.63
2022-11-10T03:35:21.021Z,100534.31
2022-11-10T03:36:52.917Z,100537.59
2022-11-10T03:38:24.808Z,100530.59
2022-11-10T03:39:56.724Z,100533.88
2022-11-10T03:41:28.517Z,100528.59
2022-11-10T03:43:00.336Z,100532.75
2022-11-10T03:44:32.135Z,100534.41
2022-11-10T03:46:03.973Z,100533.44
2022-11-10T03:47:35.827Z,100534.28
2022-11-10T03:49:07.665Z,100540.31
2022-11-10T03:50:39.532Z,100536.84
2022-11-10T03:52:11.317Z,100540.19
2022-11-10T03:53:43.152Z,100546.25
2022-11-10T03:55:16.140Z,100544.63
2022-11-10T03:56:47.970Z,100547.09
2022-11-10T03:58:19.759Z,100550.44
2022-11-10T03:59:51.600Z,100552.16
2022-11-10T04:01:24.172Z,100551.31
2022-11-10T04:02:56.076Z,100551.34
2022-11-10T04:04:46.391Z,100544.59
2022-11-10T04:06:37.196Z,100550.69
2022-11-10T04:08:32.061Z,100563.63
2022-11-10T04:10:06.874Z,100554.22
2022-11-10T04:11:57.387Z,100548.16
2022-11-10T04:13:47.416Z,100561.75
2022-11-10T04:15:37.559Z,100558.28
2022-11-10T04:17:10.011Z,100561.75
2022-11-10T04:18:42.662Z,100557.47
2022-11-10T04:20:14.557Z,100559.09
2022-11-10T04:21:46.412Z,100565.06
2022-11-10T04:23:27.168Z,100568.50
2022-11-10T04:28:34.882Z,100567.53
2022-11-10T04:30:06.869Z,100563.19
2022-11-10T04:31:39.720Z,100573.31
2022-11-10T04:33:11.522Z,100567.22
2022-11-10T04:34:43.403Z,100576.47
2022-11-10T04:36:16.285Z,100577.19
2022-11-10T04:37:48.194Z,100576.19
2022-11-10T04:39:20.031Z,100573.56
2022-11-10T04:40:52.071Z,100571.81
2022-11-10T04:42:23.952Z,100576.03
2022-11-10T04:43:56.045Z,100579.41
2022-11-10T04:45:27.827Z,100585.34
2022-11-10T04:46:59.731Z,100590.41
2022-11-10T04:48:31.762Z,100581.06
2022-11-10T04:50:03.861Z,100579.41
2022-11-10T04:51:36.842Z,100582.88
2022-11-10T04:53:08.788Z,100583.75
2022-11-10T04:54:40.881Z,100582.84
2022-11-10T04:56:14.432Z,100583.63
2022-11-10T04:57:46.292Z,100579.41
2022-11-10T04:59:18.178Z,100580.31
2022-11-10T05:00:50.050Z,100577.72
2022-11-10T05:02:21.958Z,100584.56
2022-11-10T05:03:57.127Z,100573.50
2022-11-10T05:05:28.954Z,100576.84
2022-11-10T05:07:00.852Z,100571.66
2022-11-10T05:08:32.838Z,100576.84
2022-11-10T05:10:05.014Z,100584.66
2022-11-10T05:11:36.898Z,100580.50
2022-11-10T05:13:08.726Z,100579.75
2022-11-10T05:14:40.704Z,100583.16
2022-11-10T05:16:12.942Z,100584.81
2022-11-10T05:17:47.998Z,100583.97
2022-11-10T05:19:19.872Z,100583.16
2022-11-10T05:20:53.682Z,100585.69
2022-11-10T05:22:25.526Z,100584.81
2022-11-10T05:24:00.532Z,100587.34
2022-11-10T05:25:33.728Z,100588.25
2022-11-10T05:27:05.660Z,100586.59
2022-11-10T05:28:37.975Z,100588.25
2022-11-10T05:30:10.106Z,100597.59
2022-11-10T05:31:41.953Z,100589.91
2022-11-10T05:33:13.889Z,100588.19
2022-11-10T05:34:45.832Z,100595.06
2022-11-10T05:36:17.625Z,100592.56
2022-11-10T05:37:49.601Z,100594.22
2022-11-10T05:39:21.557Z,100596.78
2022-11-10T05:40:53.651Z,100597.59
2022-11-10T05:42:26.364Z,100601.91
2022-11-10T05:43:58.233Z,100598.53
2022-11-10T05:45:30.307Z,100603.75
2022-11-10T05:47:02.260Z,100605.50
2022-11-10T05:48:34.127Z,100604.72
2022-11-10T05:50:06.730Z,100605.66
2022-11-10T05:51:38.692Z,100604.03
2022-11-10T05:53:10.694Z,100608.41
2022-11-10T05:54:42.597Z,100604.22
2022-11-10T05:56:14.486Z,100612.91
2022-11-10T05:57:47.203Z,100607.09
2022-11-10T05:59:19.183Z,100625.16
2022-11-10T06:00:51.223Z,100618.53
2022-11-10T06:02:23.107Z,100619.53
2022-11-10T06:03:55.060Z,100618.78
2022-11-10T06:05:31.145Z,100624.03
2022-11-10T06:07:03.451Z,100614.75
2022-11-10T06:08:35.491Z,100619.16
2022-11-10T06:10:07.750Z,100622.69
2022-11-10T06:11:39.838Z,100622.78
2022-11-10T06:13:11.755Z,100624.59
2022-11-10T06:14:43.617Z,100628.09
2022-11-10T06:16:15.532Z,100626.50
2022-11-10T06:17:47.583Z,100631.72
2022-11-10T06:19:19.456Z,100633.50
2022-11-10T06:20:51.280Z,100631.00
2022-11-10T06:22:23.138Z,100632.00
2022-11-10T06:23:55.231Z,100628.63
2022-11-10T06:25:27.555Z,100630.50
2022-11-10T06:26:59.474Z,100634.03
2022-11-10T06:28:31.476Z,100634.09
2022-11-10T06:30:04.027Z,100635.91
2022-11-10T06:31:35.923Z,100636.00
2022-11-10T06:33:07.808Z,100638.69
2022-11-10T06:34:39.727Z,100641.31
2022-11-10T06:36:12.819Z,100634.56
2022-11-10T06:37:44.741Z,100644.94
2022-11-10T06:39:16.721Z,100645.88
2022-11-10T06:40:48.617Z,100645.16
2022-11-10T06:42:20.593Z,100652.09
2022-11-10T06:43:52.446Z,100642.78
2022-11-10T06:45:25.294Z,100642.94
2022-11-10T06:46:57.327Z,100643.88
2022-11-10T06:48:29.174Z,100650.84
2022-11-10T06:50:01.016Z,100652.66
2022-11-10T06:51:33.201Z,100648.47
2022-11-10T06:54:37.236Z,100646.09
2022-11-10T06:56:09.525Z,100647.03
2022-11-10T06:57:41.663Z,100645.41
2022-11-10T06:59:13.656Z,100647.16
2022-11-10T07:00:45.688Z,100642.94
2022-11-10T07:02:17.762Z,100643.84
2022-11-10T07:04:17.811Z,100646.50
2022-11-10T07:05:41.611Z,100641.38
2022-11-10T07:07:14.712Z,100653.47
2022-11-10T07:08:46.870Z,100652.66
2022-11-10T07:10:18.744Z,100646.69
2022-11-10T07:11:51.176Z,100645.88
2022-11-10T07:13:23.657Z,100651.06
2022-11-10T07:14:55.911Z,100650.25
2022-11-10T07:16:28.009Z,100647.66
2022-11-10T07:18:00.029Z,100650.28
2022-11-10T07:19:32.889Z,100652.91
2022-11-10T07:21:06.126Z,100652.06
2022-11-10T07:22:38.560Z,100641.72
2022-11-10T07:24:10.448Z,100651.19
2022-11-10T07:25:42.332Z,100648.63
2022-11-10T07:27:14.411Z,100650.41
2022-11-10T07:28:46.520Z,100643.50
2022-11-10T07:30:18.530Z,100645.22
2022-11-10T07:31:50.683Z,100645.22
2022-11-10T07:33:22.638Z,100640.94
2022-11-10T07:34:54.761Z,100641.75
2022-11-10T07:36:29.256Z,100640.91
2022-11-10T07:38:08.131Z,100646.94
2022-11-10T07:39:40.354Z,100642.56
2022-11-10T07:41:12.485Z,100646.00
2022-11-10T07:42:44.461Z,100639.06
2022-11-10T07:44:16.391Z,100642.50
2022-11-10T07:45:49.688Z,100643.34
2022-11-10T07:47:21.620Z,100645.91
2022-11-10T07:48:53.609Z,100638.13
2022-11-10T07:50:25.623Z,100642.38
2022-11-10T07:51:59.538Z,100633.72
2022-11-10T07:53:31.540Z,100640.56
2022-11-10T07:55:03.698Z,100638.78
2022-11-10T07:56:35.635Z,100650.84
2022-11-10T07:58:08.093Z,100634.38
2022-11-10T07:59:40.048Z,100644.69
2022-11-10T08:01:12.412Z,100644.66
2022-11-10T08:02:44.568Z,100639.44
2022-11-10T08:04:16.834Z,100643.72
2022-11-10T08:05:49.192Z,100641.06
2022-11-10T08:07:21.269Z,100644.44
2022-11-10T08:08:53.413Z,100646.09
2022-11-10T08:10:25.453Z,100646.03
2022-11-10T08:11:57.468Z,100642.50
2022-11-10T08:13:29.633Z,100643.28
2022-11-10T08:15:01.495Z,100643.19
2022-11-10T08:16:34.069Z,100648.28
2022-11-10T08:18:07.262Z,100648.19
2022-11-10T08:19:39.145Z,100641.19
2022-11-10T08:21:11.036Z,100641.13
2022-11-10T08:22:43.068Z,100633.25
2022-11-10T08:24:14.981Z,100642.66
2022-11-10T08:25:48.151Z,100639.97
2022-11-10T08:27:20.115Z,100642.44
2022-11-10T08:28:51.952Z,100649.25
2022-11-10T08:30:23.858Z,100637.88
2022-11-10T08:31:55.722Z,100643.03
2022-11-10T08:33:27.813Z,100645.53
2022-11-10T08:34:59.880Z,100651.47
2022-11-10T08:36:32.165Z,100647.88
2022-11-10T08:38:09.487Z,100646.03
2022-11-10T08:39:41.976Z,100651.97
2022-11-10T08:41:14.014Z,100645.84
2022-11-10T08:42:46.180Z,100650.94
2022-11-10T08:44:20.730Z,100647.41
2022-11-10T08:45:54.900Z,100649.91
2022-11-10T08:47:27.054Z,100652.34
2022-11-10T08:48:58.930Z,100655.69
2022-11-10T08:50:31.179Z,100646.00
2022-11-10T08:52:03.306Z,100645.91
2022-11-10T08:53:35.716Z,100640.59
2022-11-10T08:55:07.872Z,100643.06
2022-11-10T08:56:40.098Z,100647.25
2022-11-10T08:58:12.937Z,100645.38
2022-11-10T08:59:44.831Z,100643.56
2022-11-10T09:01:16.909Z,100644.31
2022-11-10T09:02:48.830Z,100641.63
2022-11-10T09:04:21.213Z,100638.09
2022-11-10T09:05:57.914Z,100647.56
2022-11-10T09:07:31.631Z,100645.75
2022-11-10T09:09:03.898Z,100638.69
2022-11-10T09:10:40.040Z,100636.78
2022-11-10T09:12:12.064Z,100639.25
2022-11-10T09:13:44.414Z,100642.56
2022-11-10T09:15:16.628Z,100637.22
2022-11-10T09:16:48.526Z,100639.63
2022-11-10T09:18:20.632Z,100636.88
2022-11-10T09:19:52.806Z,100633.28
2022-11-10T09:21:24.846Z,100639.22
2022-11-10T09:24:31.489Z,100638.91
2022-11-10T09:26:06.655Z,100636.09
2022-11-10T09:27:39.353Z,100631.63
2022-11-10T09:29:11.277Z,100623.66
2022-11-10T09:30:43.514Z,100625.34
2022-11-10T09:32:15.490Z,100627.81
2022-11-10T09:33:47.411Z,100624.22
2022-11-10T09:35:19.539Z,100620.66
2022-11-10T09:36:51.647Z,100614.47
2022-11-10T09:38:24.153Z,100617.78
2022-11-10T09:40:01.060Z,100622.84
2022-11-10T09:41:33.420Z,100608.69
2022-11-10T09:43:05.436Z,100620.66
2022-11-10T09:44:39.425Z,100620.47
2022-11-10T09:46:40.756Z,100613.31
2022-11-10T09:48:25.243Z,100614.81
2022-11-10T09:49:58.281Z,100615.28
2022-11-10T09:51:32.623Z,100611.69
2022-11-10T09:53:04.784Z,100609.81
2022-11-10T09:54:41.047Z,100608.91
2022-11-10T09:56:15.065Z,100612.25
2022-11-10T09:57:48.985Z,100610.34
2022-11-10T09:59:24.726Z,100610.13
2022-11-10T10:01:17.256Z,100609.97
2022-11-10T10:02:51.277Z,100609.69
2022-11-10T10:04:30.198Z,100610.47
2022-11-10T10:06:15.869Z,100603.41
2022-11-10T10:09:30.818Z,100599.91
2022-11-10T10:11:05.675Z,100604.09
2022-11-10T10:12:37.626Z,100594.38
2022-11-10T10:14:32.650Z,100594.22
2022-11-10T10:16:16.993Z,100594.13
2022-11-10T10:17:48.890Z,100594.94
2022-11-10T10:19:25.175Z,100589.66
2022-11-10T10:21:02.657Z,100592.22
2022-11-10T10:22:53.619Z,100592.78
2022-11-10T10:24:28.039Z,100596.00
2022-11-10T10:25:59.991Z,100591.53
2022-11-10T10:27:31.923Z,100592.25
2022-11-10T10:29:07.870Z,100599.00
2022-11-10T10:30:40.512Z,100588.44
2022-11-10T10:32:13.393Z,100586.59
2022-11-10T10:33:45.786Z,100581.22
2022-11-10T10:35:18.363Z,100583.78
2022-11-10T10:38:34.480Z,100585.19
2022-11-10T10:40:07.040Z,100590.38
2022-11-10T10:41:39.196Z,100579.75
2022-11-10T10:43:11.492Z,100582.22
2022-11-10T10:45:03.825Z,100589.47
2022-11-10T10:46:43.484Z,100584.84
2022-11-10T10:48:26.054Z,100581.88
2022-11-10T10:50:10.645Z,100579.84
2022-11-10T10:51:43.252Z,100587.38
2022-11-10T10:53:19.361Z,100585.38
2022-11-10T10:54:59.846Z,100585.19
2022-11-10T10:56:32.772Z,100581.75
2022-11-10T10:58:06.395Z,100588.56
2022-11-10T10:59:38.539Z,100578.84
2022-11-10T11:01:16.712Z,100580.75
2022-11-10T11:03:04.810Z,100581.47
2022-11-10T11:04:37.547Z,100580.44
2022-11-10T11:06:15.340Z,100574.19
2022-11-10T11:08:00.856Z,100580.06
2022-11-10T11:09:42.688Z,100585.13
2022-11-10T11:11:14.608Z,100578.06
2022-11-10T11:12:46.591Z,100576.03
2022-11-10T11:14:21.477Z,100585.59
2022-11-10T11:16:00.788Z,100575.25
2022-11-10T11:17:33.063Z,100580.44
2022-11-10T11:19:05.388Z,100581.56
2022-11-10T11:20:38.467Z,100579.78
2022-11-10T11:22:10.429Z,100579.53
2022-11-10T11:23:52.123Z,100574.00
2022-11-10T11:25:32.825Z,100573.91
2022-11-10T11:27:23.156Z,100571.00
2022-11-10T11:29:10.576Z,100570.63
2022-11-10T11:30:54.657Z,100566.97
2022-11-10T11:32:45.316Z,100565.81
2022-11-10T11:34:20.061Z,100574.56
2022-11-10T11:35:59.190Z,100570.09
2022-11-10T11:37:42.940Z,100570.19
2022-11-10T11:39:21.047Z,100575.13
2022-11-10T11:41:11.681Z,100574.03
2022-11-10T11:42:46.528Z,100566.81
2022-11-10T11:44:21.379Z,100570.16
2022-11-10T11:45:55.651Z,100570.97
2022-11-10T11:47:37.186Z,100571.72
2022-11-10T11:49:10.752Z,100568.09
2022-11-10T11:50:56.012Z,100569.97
2022-11-10T11:52:29.883Z,100556.81
2022-11-10T11:54:29.528Z,100569.94
2022-11-10T11:56:07.826Z,100566.31
2022-11-10T11:57:46.312Z,100570.78
2022-11-10T11:59:18.254Z,100562.72
2022-11-10T12:00:57.207Z,100566.09
2022-11-10T12:02:33.645Z,100563.41
2022-11-10T12:04:34.928Z,100569.31
2022-11-10T12:06:16.378Z,100566.88
2022-11-10T12:07:48.521Z,100571.03
2022-11-10T12:09:38.875Z,100578.47
2022-11-10T12:11:21.844Z,100578.22
2022-11-10T12:13:03.018Z,100578.66
2022-11-10T12:14:47.480Z,100575.78
2022-11-10T12:16:32.465Z,100573.16
2022-11-10T12:18:04.706Z,100580.00
2022-11-10T12:19:39.510Z,100580.69
2022-11-10T12:21:11.543Z,100578.81
2022-11-10T12:23:01.654Z,100577.03
2022-11-10T12:24:54.600Z,100575.13
2022-11-10T12:26:35.913Z,100579.53
2022-11-10T12:28:13.350Z,100579.78
2022-11-10T12:29:47.121Z,100579.06
2022-11-10T12:31:21.701Z,100581.56
2022-11-10T12:33:04.121Z,100581.44
2022-11-10T12:36:14.405Z,100585.53
2022-11-10T12:38:04.653Z,100583.03
2022-11-10T12:39:53.772Z,100591.88
2022-11-10T12:41:26.576Z,100596.47
2022-11-10T12:43:02.649Z,100586.53
2022-11-10T12:44:34.913Z,100595.63
2022-11-10T12:46:08.711Z,100583.09
2022-11-10T12:47:43.941Z,100582.66
2022-11-10T12:49:35.874Z,100595.69
2022-11-10T12:51:09.805Z,100589.59
2022-11-10T12:52:46.004Z,100595.53
2022-11-10T12:54:18.445Z,100594.44
2022-11-10T12:55:51.709Z,100587.47
2022-11-10T12:57:24.256Z,100601.34
2022-11-10T12:59:35.735Z,100596.72
2022-11-10T13:01:14.675Z,100594.81
2022-11-10T13:02:46.973Z,100602.00
2022-11-10T13:04:19.544Z,100597.75
2022-11-10T13:05:58.690Z,100601.16
2022-11-10T13:35:29.047Z,100622.78
2022-11-10T13:37:01.185Z,100629.72
2022-11-10T13:38:34.795Z,100620.91
2022-11-10T13:40:24.881Z,100624.41
2022-11-10T13:42:01.137Z,100628.25
2022-11-10T13:43:33.184Z,100630.75
2022-11-10T13:45:25.843Z,100630.25
2022-11-10T13:47:18.082Z,100630.16
2022-11-10T13:49:12.936Z,100622.63
2022-11-10T13:51:25.652Z,100625.69
2022-11-10T13:53:00.566Z,100633.69
2022-11-10T13:54:38.002Z,100638.09
2022-11-10T13:56:28.751Z,100638.91
2022-11-10T13:58:04.611Z,100638.09
2022-11-10T13:59:44.634Z,100640.75
2022-11-10T14:01:19.562Z,100642.44
2022-11-10T14:02:52.959Z,100644.97
2022-11-10T14:04:51.463Z,100645.97
2022-11-10T14:06:31.897Z,100645.16
2022-11-10T14:08:10.007Z,100645.28
2022-11-10T14:09:51.644Z,100641.06
2022-11-10T14:11:25.893Z,100641.28
2022-11-10T14:12:59.523Z,100642.25
2022-11-10T14:14:48.101Z,100646.84
2022-11-10T14:16:23.676Z,100652.19
2022-11-10T14:17:56.038Z,100652.28
2022-11-10T14:19:37.169Z,100655.84
2022-11-10T14:21:10.882Z,100647.22
2022-11-10T14:22:43.400Z,100651.81
2022-11-10T14:24:16.942Z,100648.59
2022-11-10T14:25:52.495Z,100650.38
2022-11-10T14:27:25.876Z,100648.72
2022-11-10T14:28:57.753Z,100650.59
2022-11-10T14:30:33.872Z,100653.28
2022-11-10T14:32:15.880Z,100652.53
2022-11-10T14:33:54.772Z,100655.25
2022-11-10T14:35:27.660Z,100665.03
2022-11-10T14:37:00.019Z,100653.75
2022-11-10T14:38:34.378Z,100655.63
2022-11-10T14:40:06.574Z,100656.66
2022-11-10T14:41:38.678Z,100662.00
2022-11-10T14:43:26.769Z,100662.09
2022-11-10T14:45:17.503Z,100661.38
2022-11-10T14:46:49.583Z,100658.97
2022-11-10T14:48:25.907Z,100667.81
2022-11-10T14:50:27.357Z,100680.25
2022-11-10T14:51:59.562Z,100672.59
2022-11-10T14:53:33.842Z,100682.47
2022-11-10T14:55:28.947Z,100675.72
2022-11-10T14:57:00.758Z,100684.63
2022-11-10T14:58:36.051Z,100673.56
2022-11-10T15:00:08.949Z,100671.13
2022-11-10T15:01:42.608Z,100675.69
2022-11-10T15:03:15.611Z,100675.91
2022-11-10T15:04:48.351Z,100672.63
2022-11-10T15:06:20.338Z,100683.28
2022-11-10T15:07:53.391Z,100676.59
2022-11-10T15:09:27.442Z,100682.00
2022-11-10T15:10:59.519Z,100689.19
2022-11-10T15:12:31.643Z,100689.44
2022-11-10T15:14:03.532Z,100684.44
2022-11-10T15:15:35.595Z,100691.47
2022-11-10T15:17:11.610Z,100696.84
2022-11-10T15:18:45.973Z,100696.97
2022-11-10T15:20:47.156Z,100703.31
2022-11-10T15:22:31.105Z,100700.03
2022-11-10T15:24:04.053Z,100703.84
2022-11-10T15:25:39.371Z,100706.66
2022-11-10T15:27:24.796Z,100705.09
2022-11-10T15:28:56.924Z,100711.31
2022-11-10T15:30:29.040Z,100715.81
2022-11-10T15:33:34.871Z,100720.56
2022-11-10T15:35:25.341Z,100728.56
2022-11-10T15:37:10.624Z,100729.72
2022-11-10T15:38:42.690Z,100726.44
2022-11-10T15:40:30.717Z,100729.28
2022-11-10T15:42:08.636Z,100730.41
2022-11-10T15:43:40.713Z,100727.94
2022-11-10T15:45:12.716Z,100731.56
2022-11-10T15:46:45.145Z,100731.72
2022-11-10T15:48:18.300Z,100731.06
2022-11-10T15:49:50.247Z,100738.13
2022-11-10T15:51:26.092Z,100737.47
2022-11-10T15:52:58.533Z,100743.72
2022-11-10T15:54:30.911Z,100742.16
2022-11-10T15:56:02.923Z,100746.69
2022-11-10T15:57:35.063Z,100746.81
2022-11-10T15:59:06.901Z,100752.16
2022-11-10T16:00:38.925Z,100754.00
2022-11-10T16:02:18.824Z,100751.50
2022-11-10T16:03:50.732Z,100755.97
2022-11-10T16:05:22.890Z,100759.53
2022-11-10T16:06:55.402Z,100767.41
2022-11-10T16:08:27.405Z,100763.19
2022-11-10T16:10:00.529Z,100774.53
2022-11-10T16:11:32.628Z,100771.16
2022-11-10T16:13:04.563Z,100772.13
2022-11-10T16:14:36.494Z,100772.16
2022-11-10T16:16:08.397Z,100779.16
2022-11-10T16:19:19.451Z,100780.97
2022-11-10T16:20:52.114Z,100789.69
2022-11-10T16:22:24.196Z,100781.94
2022-11-10T16:23:56.147Z,100787.19
2022-11-10T16:25:28.111Z,100789.84
2022-11-10T16:27:00.010Z,100789.00
2022-11-10T16:28:31.951Z,100789.97
2022-11-10T16:30:04.165Z,100794.34
2022-11-10T16:31:37.272Z,100800.44
2022-11-10T16:33:16.390Z,100800.50
2022-11-10T16:34:48.954Z,100797.09
2022-11-10T16:36:28.639Z,100799.72
2022-11-10T16:38:00.498Z,100809.31
2022-11-10T16:39:32.534Z,100812.81
2022-11-10T16:41:04.704Z,100811.13
2022-11-10T16:42:36.673Z,100808.56
2022-11-10T16:44:10.430Z,100816.38
2022-11-10T16:45:42.699Z,100810.34
2022-11-10T16:47:16.408Z,100815.56
2022-11-10T16:48:48.701Z,100811.22
2022-11-10T16:50:31.849Z,100814.72
2022-11-10T16:52:04.465Z,100818.19
2022-11-10T16:53:36.478Z,100829.41
2022-11-10T16:55:10.164Z,100819.06
2022-11-10T16:56:42.199Z,100829.44
2022-11-10T16:58:14.105Z,100829.44
2022-11-10T16:59:49.176Z,100831.22
2022-11-10T17:01:22.201Z,100829.47
2022-11-10T17:02:59.330Z,100832.09
2022-11-10T17:04:31.419Z,100834.69
2022-11-10T17:06:03.457Z,100832.94
2022-11-10T17:07:35.431Z,100831.25
2022-11-10T17:09:13.917Z,100826.94
2022-11-10T17:10:45.881Z,100833.91
2022-11-10T17:12:17.896Z,100828.72
2022-11-10T17:13:49.749Z,100833.06
2022-11-10T17:15:21.680Z,100839.97
2022-11-10T17:16:59.735Z,100843.41
2022-11-10T17:18:31.667Z,100846.03
2022-11-10T17:20:04.290Z,100848.59
2022-11-10T17:21:36.650Z,100844.28
2022-11-10T17:23:08.707Z,100847.75
2022-11-10T17:24:40.654Z,100850.34
2022-11-10T17:26:12.998Z,100848.66
2022-11-10T17:27:45.307Z,100855.56
2022-11-10T17:29:21.653Z,100850.38
2022-11-10T17:30:54.268Z,100848.66
2022-11-10T17:32:50.125Z,100849.53
2022-11-10T17:34:18.302Z,100849.53
2022-11-10T17:35:50.711Z,100847.81
2022-11-10T17:37:22.694Z,100848.66
2022-11-10T17:38:54.742Z,100846.94
2022-11-10T17:40:27.417Z,100846.94
2022-11-10T17:41:59.399Z,100857.28
2022-11-10T17:43:31.372Z,100852.09
2022-11-10T17:45:03.599Z,100846.91
2022-11-10T17:48:18.847Z,100852.97
2022-11-10T17:49:50.853Z,100847.78
2022-11-10T17:51:23.385Z,100853.84
2022-11-10T17:52:55.743Z,100852.09
2022-11-10T17:54:27.898Z,100852.09
2022-11-10T17:55:59.919Z,100852.09
2022-11-10T17:57:31.892Z,100855.53
2022-11-10T17:59:04.014Z,100857.25
2022-11-10T18:00:36.163Z,100856.41
2022-11-10T18:02:09.547Z,100856.38
2022-11-10T18:03:42.010Z,100859.81
2022-11-10T18:05:17.564Z,100861.50
2022-11-10T18:06:49.932Z,100858.91
2022-11-10T18:08:22.124Z,100858.06
2022-11-10T18:09:54.050Z,100867.50
2022-11-10T18:11:26.098Z,100868.38
2022-11-10T18:12:58.225Z,100865.78
2022-11-10T18:14:30.855Z,100870.97
2022-11-10T18:16:02.924Z,100876.13
2022-11-10T18:17:34.937Z,100869.22
2022-11-10T18:19:06.926Z,100872.69
2022-11-10T18:20:39.257Z,100869.25
2022-11-10T18:22:11.130Z,100874.41
2022-11-10T18:23:43.647Z,100876.97
2022-11-10T18:25:15.589Z,100874.38
2022-11-10T18:26:47.535Z,100877.81
2022-11-10T18:28:19.563Z,100873.50
2022-11-10T18:29:51.997Z,100871.75
2022-11-10T18:31:24.992Z,100876.94
2022-11-10T18:32:57.109Z,100874.34
2022-11-10T18:34:29.410Z,100872.56
2022-11-10T18:36:01.390Z,100881.13
2022-11-10T18:37:37.985Z,100880.22
2022-11-10T18:39:11.003Z,100876.75
2022-11-10T18:40:43.056Z,100886.13
2022-11-10T18:42:15.247Z,100888.66
2022-11-10T18:43:47.331Z,100886.88
2022-11-10T18:45:19.347Z,100892.00
2022-11-10T18:46:51.234Z,100883.31
2022-11-10T18:48:28.377Z,100889.31
2022-11-10T18:50:02.040Z,100891.03
2022-11-10T18:51:34.206Z,100892.72